PWSweather.com
Personal Weather Stations
Station Observations
KMNGREYC2
Grey Cloud Island, Grey Cloud Island, MN 55071

Grey Cloud IslandGrey Cloud Island, MN 55071

Lat: 44.799333, Lon: -92.987851

Elevation: 700

Station Type: Davis VP2

www.jagielski.com/weather/conditions.htm

High Low Average
Temperature 67.0°F19.4°C 47.2°F8.4°C 55.1°F12.8°C
Dew Point 57.7°F14.3°C 45.8°F7.7°C 51.0°F10.6°C
Winds 6.0 mph 9.7 kmh Calm Calm 1.0 mph SSW1.6 kmh SSW
Wind Gusts 9.0 mph14.5 kmh -- 4.0 mph6.4 kmh
Humidity 96% 66% 87%
Pressure 29.80 in1009.1 mb 29.67 in1004.7 mb -
Precipitation 0.00 in0.0 mm - -
Hour Temp Dew Point Humidity Winds Wind Gusts Pressure Precip Precip Rate Daily Precip Total
12:00 AM 48.6°F9.2°C 47.2°F8.4°C 95% Calm Calm 9.0 mph14.5 kmh 29.76 in1007.8 mb 0.00 in0.0 mm 0.00 in0.0 mm 0.00 in0.0 mm
12:15 AM 48.5°F9.2°C 47.1°F8.4°C 95% Calm Calm 4.0 mph6.4 kmh 29.76 in1007.8 mb 0.00 in0.0 mm 0.00 in0.0 mm 0.00 in0.0 mm
12:30 AM 48.4°F9.1°C 47.0°F8.3°C 95% Calm Calm 5.0 mph8.0 kmh 29.75 in1007.5 mb 0.00 in0.0 mm 0.00 in0.0 mm 0.00 in0.0 mm
12:45 AM 48.3°F9.1°C 46.9°F8.3°C 95% Calm Calm 4.0 mph6.4 kmh 29.75 in1007.5 mb 0.00 in0.0 mm 0.00 in0.0 mm 0.00 in0.0 mm
01:00 AM 48.2°F9.0°C 46.8°F8.2°C 95% 6.0 mph NW9.7 kmh NW 6.0 mph9.7 kmh 29.75 in1007.5 mb 0.00 in0.0 mm 0.00 in0.0 mm 0.00 in0.0 mm
01:15 AM 47.8°F8.8°C 46.4°F8.0°C 95% 3.0 mph NW4.8 kmh NW 9.0 mph14.5 kmh 29.75 in1007.5 mb 0.00 in0.0 mm 0.00 in0.0 mm 0.00 in0.0 mm
01:30 AM 47.6°F8.7°C 46.2°F7.9°C 95% 1.0 mph N1.6 kmh N 9.0 mph14.5 kmh 29.74 in1007.1 mb 0.00 in0.0 mm 0.00 in0.0 mm 0.00 in0.0 mm
01:45 AM 47.5°F8.6°C 46.1°F7.8°C 95% 1.0 mph NE1.6 kmh NE 4.0 mph6.4 kmh 29.75 in1007.5 mb 0.00 in0.0 mm 0.00 in0.0 mm 0.00 in0.0 mm
02:00 AM 47.4°F8.6°C 46.0°F7.8°C 95% Calm Calm 5.0 mph8.0 kmh 29.75 in1007.5 mb 0.00 in0.0 mm 0.00 in0.0 mm 0.00 in0.0 mm
02:15 AM 47.3°F8.5°C 45.9°F7.7°C 95% 2.0 mph NW3.2 kmh NW 4.0 mph6.4 kmh 29.76 in1007.8 mb 0.00 in0.0 mm 0.00 in0.0 mm 0.00 in0.0 mm
02:30 AM 47.2°F8.4°C 45.8°F7.7°C 95% 1.0 mph NNW1.6 kmh NNW 6.0 mph9.7 kmh 29.75 in1007.5 mb 0.00 in0.0 mm 0.00 in0.0 mm 0.00 in0.0 mm
02:45 AM 47.2°F8.4°C 45.8°F7.7°C 95% Calm Calm 5.0 mph8.0 kmh 29.77 in1008.1 mb 0.00 in0.0 mm 0.00 in0.0 mm 0.00 in0.0 mm
03:00 AM 47.3°F8.5°C 45.9°F7.7°C 95% Calm Calm 5.0 mph8.0 kmh 29.78 in1008.5 mb 0.00 in0.0 mm 0.00 in0.0 mm 0.00 in0.0 mm
03:15 AM 47.4°F8.6°C 46.0°F7.8°C 95% Calm Calm 5.0 mph8.0 kmh 29.80 in1009.1 mb 0.00 in0.0 mm 0.00 in0.0 mm 0.00 in0.0 mm
03:30 AM 47.4°F8.6°C 46.3°F7.9°C 96% Calm Calm 5.0 mph8.0 kmh 29.79 in1008.8 mb 0.00 in0.0 mm 0.00 in0.0 mm 0.00 in0.0 mm
03:45 AM 47.5°F8.6°C 46.4°F8.0°C 96% Calm Calm 3.0 mph4.8 kmh 29.79 in1008.8 mb 0.00 in0.0 mm 0.00 in0.0 mm 0.00 in0.0 mm
04:00 AM 47.5°F8.6°C 46.4°F8.0°C 96% Calm Calm 5.0 mph8.0 kmh 29.78 in1008.5 mb 0.00 in0.0 mm 0.00 in0.0 mm 0.00 in0.0 mm
04:15 AM 47.5°F8.6°C 46.4°F8.0°C 96% Calm Calm 1.0 mph1.6 kmh 29.77 in1008.1 mb 0.00 in0.0 mm 0.00 in0.0 mm 0.00 in0.0 mm
04:30 AM 47.4°F8.6°C 46.3°F7.9°C 96% Calm Calm 3.0 mph4.8 kmh 29.77 in1008.1 mb 0.00 in0.0 mm 0.00 in0.0 mm 0.00 in0.0 mm
04:45 AM 47.5°F8.6°C 46.4°F8.0°C 96% Calm Calm 4.0 mph6.4 kmh 29.76 in1007.8 mb 0.00 in0.0 mm 0.00 in0.0 mm 0.00 in0.0 mm
05:00 AM 47.4°F8.6°C 46.3°F7.9°C 96% Calm Calm 4.0 mph6.4 kmh 29.76 in1007.8 mb 0.00 in0.0 mm 0.00 in0.0 mm 0.00 in0.0 mm
05:15 AM 47.3°F8.5°C 46.2°F7.9°C 96% Calm Calm 2.0 mph3.2 kmh 29.78 in1008.5 mb 0.00 in0.0 mm 0.00 in0.0 mm 0.00 in0.0 mm
05:30 AM 47.3°F8.5°C 46.2°F7.9°C 96% 2.0 mph N3.2 kmh N 4.0 mph6.4 kmh 29.79 in1008.8 mb 0.00 in0.0 mm 0.00 in0.0 mm 0.00 in0.0 mm
05:45 AM 47.3°F8.5°C 46.2°F7.9°C 96% Calm Calm 5.0 mph8.0 kmh 29.78 in1008.5 mb 0.00 in0.0 mm 0.00 in0.0 mm 0.00 in0.0 mm
06:00 AM 47.3°F8.5°C 46.2°F7.9°C 96% Calm Calm 5.0 mph8.0 kmh 29.78 in1008.5 mb 0.00 in0.0 mm 0.00 in0.0 mm 0.00 in0.0 mm
06:15 AM 47.3°F8.5°C 46.2°F7.9°C 96% Calm Calm 5.0 mph8.0 kmh 29.79 in1008.8 mb 0.00 in0.0 mm 0.00 in0.0 mm 0.00 in0.0 mm
06:30 AM 47.4°F8.6°C 46.3°F7.9°C 96% Calm Calm 5.0 mph8.0 kmh 29.80 in1009.1 mb 0.00 in0.0 mm 0.00 in0.0 mm 0.00 in0.0 mm
06:45 AM 47.5°F8.6°C 46.4°F8.0°C 96% Calm Calm 3.0 mph4.8 kmh 29.80 in1009.1 mb 0.00 in0.0 mm 0.00 in0.0 mm 0.00 in0.0 mm
07:00 AM 47.6°F8.7°C 46.5°F8.1°C 96% Calm Calm 8.0 mph12.9 kmh 29.80 in1009.1 mb 0.00 in0.0 mm 0.00 in0.0 mm 0.00 in0.0 mm
07:15 AM 47.7°F8.7°C 46.6°F8.1°C 96% Calm Calm 4.0 mph6.4 kmh 29.80 in1009.1 mb 0.00 in0.0 mm 0.00 in0.0 mm 0.00 in0.0 mm
07:30 AM 47.7°F8.7°C 46.6°F8.1°C 96% 2.0 mph N3.2 kmh N 6.0 mph9.7 kmh 29.79 in1008.8 mb 0.00 in0.0 mm 0.00 in0.0 mm 0.00 in0.0 mm
07:45 AM 47.9°F8.8°C 46.8°F8.2°C 96% 2.0 mph NW3.2 kmh NW 5.0 mph8.0 kmh 29.78 in1008.5 mb 0.00 in0.0 mm 0.00 in0.0 mm 0.00 in0.0 mm
08:00 AM 48.1°F8.9°C 47.0°F8.3°C 96% 3.0 mph NW4.8 kmh NW 6.0 mph9.7 kmh 29.79 in1008.8 mb 0.00 in0.0 mm 0.00 in0.0 mm 0.00 in0.0 mm
08:15 AM 48.1°F8.9°C 47.0°F8.3°C 96% Calm Calm 5.0 mph8.0 kmh 29.80 in1009.1 mb 0.00 in0.0 mm 0.00 in0.0 mm 0.00 in0.0 mm
08:30 AM 48.4°F9.1°C 47.3°F8.5°C 96% Calm Calm 5.0 mph8.0 kmh 29.80 in1009.1 mb 0.00 in0.0 mm 0.00 in0.0 mm 0.00 in0.0 mm
08:45 AM 48.7°F9.3°C 47.6°F8.7°C 96% Calm Calm 4.0 mph6.4 kmh 29.80 in1009.1 mb 0.00 in0.0 mm 0.00 in0.0 mm 0.00 in0.0 mm
09:00 AM 49.1°F9.5°C 48.0°F8.9°C 96% Calm Calm 5.0 mph8.0 kmh 29.80 in1009.1 mb 0.00 in0.0 mm 0.00 in0.0 mm 0.00 in0.0 mm
09:15 AM 49.5°F9.7°C 48.1°F8.9°C 95% 2.0 mph NE3.2 kmh NE 4.0 mph6.4 kmh 29.79 in1008.8 mb 0.00 in0.0 mm 0.00 in0.0 mm 0.00 in0.0 mm
09:30 AM 49.9°F9.9°C 48.5°F9.2°C 95% 2.0 mph ENE3.2 kmh ENE 5.0 mph8.0 kmh 29.78 in1008.5 mb 0.00 in0.0 mm 0.00 in0.0 mm 0.00 in0.0 mm
09:45 AM 50.4°F10.2°C 49.0°F9.4°C 95% 1.0 mph N1.6 kmh N 6.0 mph9.7 kmh 29.78 in1008.5 mb 0.00 in0.0 mm 0.00 in0.0 mm 0.00 in0.0 mm
10:00 AM 50.9°F10.5°C 49.2°F9.6°C 94% Calm Calm 6.0 mph9.7 kmh 29.78 in1008.5 mb 0.00 in0.0 mm 0.00 in0.0 mm 0.00 in0.0 mm
10:15 AM 51.2°F10.7°C 49.3°F9.6°C 93% Calm Calm 4.0 mph6.4 kmh 29.78 in1008.5 mb 0.00 in0.0 mm 0.00 in0.0 mm 0.00 in0.0 mm
10:30 AM 51.9°F11.1°C 49.9°F9.9°C 93% 1.0 mph NW1.6 kmh NW 6.0 mph9.7 kmh 29.78 in1008.5 mb 0.00 in0.0 mm 0.00 in0.0 mm 0.00 in0.0 mm
10:45 AM 52.5°F11.4°C 50.3°F10.2°C 92% Calm Calm 5.0 mph8.0 kmh 29.78 in1008.5 mb 0.00 in0.0 mm 0.00 in0.0 mm 0.00 in0.0 mm
11:00 AM 52.9°F11.6°C 50.1°F10.1°C 90% 1.0 mph NW1.6 kmh NW 5.0 mph8.0 kmh 29.78 in1008.5 mb 0.00 in0.0 mm 0.00 in0.0 mm 0.00 in0.0 mm
11:15 AM 53.6°F12.0°C 50.7°F10.4°C 90% 1.0 mph ENE1.6 kmh ENE 6.0 mph9.7 kmh 29.78 in1008.5 mb 0.00 in0.0 mm 0.00 in0.0 mm 0.00 in0.0 mm
11:30 AM 54.7°F12.6°C 51.8°F11.0°C 90% 1.0 mph NNE1.6 kmh NNE 6.0 mph9.7 kmh 29.78 in1008.5 mb 0.00 in0.0 mm 0.00 in0.0 mm 0.00 in0.0 mm
11:45 AM 56.6°F13.7°C 53.1°F11.7°C 88% 1.0 mph NE1.6 kmh NE 5.0 mph8.0 kmh 29.77 in1008.1 mb 0.00 in0.0 mm 0.00 in0.0 mm 0.00 in0.0 mm
12:00 PM 57.5°F14.2°C 53.0°F11.7°C 85% Calm Calm 5.0 mph8.0 kmh 29.77 in1008.1 mb 0.00 in0.0 mm 0.00 in0.0 mm 0.00 in0.0 mm
12:15 PM 59.0°F15.0°C 54.5°F12.5°C 85% Calm Calm 4.0 mph6.4 kmh 29.76 in1007.8 mb 0.00 in0.0 mm 0.00 in0.0 mm 0.00 in0.0 mm
12:30 PM 60.8°F16.0°C 55.3°F12.9°C 82% 3.0 mph NNW4.8 kmh NNW 7.0 mph11.3 kmh 29.75 in1007.5 mb 0.00 in0.0 mm 0.00 in0.0 mm 0.00 in0.0 mm
12:45 PM 61.7°F16.5°C 55.5°F13.1°C 80% Calm Calm 5.0 mph8.0 kmh 29.74 in1007.1 mb 0.00 in0.0 mm 0.00 in0.0 mm 0.00 in0.0 mm
01:00 PM 61.9°F16.6°C 54.6°F12.6°C 77% 3.0 mph NNE4.8 kmh NNE 6.0 mph9.7 kmh 29.74 in1007.1 mb 0.00 in0.0 mm 0.00 in0.0 mm 0.00 in0.0 mm
01:15 PM 62.7°F17.1°C 56.1°F13.4°C 79% 1.0 mph SW1.6 kmh SW 4.0 mph6.4 kmh 29.74 in1007.1 mb 0.00 in0.0 mm 0.00 in0.0 mm 0.00 in0.0 mm
01:30 PM 63.9°F17.7°C 56.6°F13.7°C 77% Calm Calm 6.0 mph9.7 kmh 29.74 in1007.1 mb 0.00 in0.0 mm 0.00 in0.0 mm 0.00 in0.0 mm
01:45 PM 64.2°F17.9°C 56.1°F13.4°C 75% 1.0 mph NNE1.6 kmh NNE 5.0 mph8.0 kmh 29.73 in1006.8 mb 0.00 in0.0 mm 0.00 in0.0 mm 0.00 in0.0 mm
02:00 PM 64.8°F18.2°C 56.3°F13.5°C 74% 1.0 mph SE1.6 kmh SE 6.0 mph9.7 kmh 29.72 in1006.4 mb 0.00 in0.0 mm 0.00 in0.0 mm 0.00 in0.0 mm
02:15 PM 65.4°F18.6°C 57.7°F14.3°C 76% 1.0 mph SE1.6 kmh SE 4.0 mph6.4 kmh 29.73 in1006.8 mb 0.00 in0.0 mm 0.00 in0.0 mm 0.00 in0.0 mm
02:30 PM 66.1°F18.9°C 57.6°F14.2°C 74% 3.0 mph NNE4.8 kmh NNE 7.0 mph11.3 kmh 29.74 in1007.1 mb 0.00 in0.0 mm 0.00 in0.0 mm 0.00 in0.0 mm
02:45 PM 66.5°F19.2°C 57.2°F14.0°C 72% Calm Calm 3.0 mph4.8 kmh 29.74 in1007.1 mb 0.00 in0.0 mm 0.00 in0.0 mm 0.00 in0.0 mm
03:00 PM 66.5°F19.2°C 56.8°F13.8°C 71% 1.0 mph NE1.6 kmh NE 5.0 mph8.0 kmh 29.74 in1007.1 mb 0.00 in0.0 mm 0.00 in0.0 mm 0.00 in0.0 mm
03:15 PM 66.5°F19.2°C 56.4°F13.6°C 70% 5.0 mph NE8.0 kmh NE 5.0 mph8.0 kmh 29.74 in1007.1 mb 0.00 in0.0 mm 0.00 in0.0 mm 0.00 in0.0 mm
03:30 PM 66.9°F19.4°C 56.8°F13.8°C 70% Calm Calm 6.0 mph9.7 kmh 29.73 in1006.8 mb 0.00 in0.0 mm 0.00 in0.0 mm 0.00 in0.0 mm
03:45 PM 67.0°F19.4°C 55.7°F13.2°C 67% 1.0 mph NE1.6 kmh NE 4.0 mph6.4 kmh 29.73 in1006.8 mb 0.00 in0.0 mm 0.00 in0.0 mm 0.00 in0.0 mm
04:00 PM 66.9°F19.4°C 55.2°F12.9°C 66% Calm Calm 5.0 mph8.0 kmh 29.73 in1006.8 mb 0.00 in0.0 mm 0.00 in0.0 mm 0.00 in0.0 mm
04:15 PM 66.7°F19.3°C 55.0°F12.8°C 66% Calm Calm 2.0 mph3.2 kmh 29.73 in1006.8 mb 0.00 in0.0 mm 0.00 in0.0 mm 0.00 in0.0 mm
04:30 PM 66.6°F19.2°C 55.7°F13.2°C 68% Calm Calm 5.0 mph8.0 kmh 29.72 in1006.4 mb 0.00 in0.0 mm 0.00 in0.0 mm 0.00 in0.0 mm
04:45 PM 66.6°F19.2°C 56.1°F13.4°C 69% Calm Calm 3.0 mph4.8 kmh 29.72 in1006.4 mb 0.00 in0.0 mm 0.00 in0.0 mm 0.00 in0.0 mm
05:00 PM 66.5°F19.2°C 56.0°F13.3°C 69% Calm Calm 3.0 mph4.8 kmh 29.72 in1006.4 mb 0.00 in0.0 mm 0.00 in0.0 mm 0.00 in0.0 mm
05:15 PM 66.5°F19.2°C 56.4°F13.6°C 70% 1.0 mph SSW1.6 kmh SSW 4.0 mph6.4 kmh 29.70 in1005.8 mb 0.00 in0.0 mm 0.00 in0.0 mm 0.00 in0.0 mm
05:30 PM 66.3°F19.1°C 56.2°F13.4°C 70% Calm Calm 4.0 mph6.4 kmh 29.69 in1005.4 mb 0.00 in0.0 mm 0.00 in0.0 mm 0.00 in0.0 mm
05:45 PM 65.9°F18.8°C 56.2°F13.4°C 71% Calm Calm 3.0 mph4.8 kmh 29.70 in1005.8 mb 0.00 in0.0 mm 0.00 in0.0 mm 0.00 in0.0 mm
06:00 PM 65.6°F18.7°C 56.7°F13.7°C 73% Calm Calm 3.0 mph4.8 kmh 29.70 in1005.8 mb 0.00 in0.0 mm 0.00 in0.0 mm 0.00 in0.0 mm
06:15 PM 65.1°F18.4°C 56.6°F13.7°C 74% Calm Calm 5.0 mph8.0 kmh 29.69 in1005.4 mb 0.00 in0.0 mm 0.00 in0.0 mm 0.00 in0.0 mm
06:30 PM 64.4°F18.0°C 56.7°F13.7°C 76% Calm Calm 5.0 mph8.0 kmh 29.68 in1005.1 mb 0.00 in0.0 mm 0.00 in0.0 mm 0.00 in0.0 mm
06:45 PM 63.7°F17.6°C 56.4°F13.6°C 77% Calm Calm 1.0 mph1.6 kmh 29.68 in1005.1 mb 0.00 in0.0 mm 0.00 in0.0 mm 0.00 in0.0 mm
07:00 PM 63.1°F17.3°C 56.1°F13.4°C 78% Calm Calm 4.0 mph6.4 kmh 29.68 in1005.1 mb 0.00 in0.0 mm 0.00 in0.0 mm 0.00 in0.0 mm
07:15 PM 62.5°F16.9°C 55.9°F13.3°C 79% Calm Calm 1.0 mph1.6 kmh 29.68 in1005.1 mb 0.00 in0.0 mm 0.00 in0.0 mm 0.00 in0.0 mm
07:30 PM 62.0°F16.7°C 56.1°F13.4°C 81% Calm Calm 1.0 mph1.6 kmh 29.67 in1004.7 mb 0.00 in0.0 mm 0.00 in0.0 mm 0.00 in0.0 mm
07:45 PM 61.3°F16.3°C 55.8°F13.2°C 82% Calm Calm 1.0 mph1.6 kmh 29.68 in1005.1 mb 0.00 in0.0 mm 0.00 in0.0 mm 0.00 in0.0 mm
08:00 PM 60.4°F15.8°C 55.2°F12.9°C 83% Calm Calm 3.0 mph4.8 kmh 29.68 in1005.1 mb 0.00 in0.0 mm 0.00 in0.0 mm 0.00 in0.0 mm
08:15 PM 59.8°F15.4°C 55.0°F12.8°C 84% Calm Calm -- 29.70 in1005.8 mb 0.00 in0.0 mm 0.00 in0.0 mm 0.00 in0.0 mm
08:30 PM 59.1°F15.1°C 54.3°F12.4°C 84% Calm Calm -- 29.70 in1005.8 mb 0.00 in0.0 mm 0.00 in0.0 mm 0.00 in0.0 mm
08:45 PM 58.3°F14.6°C 53.8°F12.1°C 85% Calm Calm -- 29.70 in1005.8 mb 0.00 in0.0 mm 0.00 in0.0 mm 0.00 in0.0 mm
09:00 PM 57.4°F14.1°C 53.3°F11.8°C 86% Calm Calm -- 29.70 in1005.8 mb 0.00 in0.0 mm 0.00 in0.0 mm 0.00 in0.0 mm
09:15 PM 56.6°F13.7°C 52.5°F11.4°C 86% Calm Calm -- 29.71 in1006.1 mb 0.00 in0.0 mm 0.00 in0.0 mm 0.00 in0.0 mm
09:30 PM 55.8°F13.2°C 52.0°F11.1°C 87% Calm Calm -- 29.71 in1006.1 mb 0.00 in0.0 mm 0.00 in0.0 mm 0.00 in0.0 mm
09:45 PM 55.3°F12.9°C 52.1°F11.2°C 89% Calm Calm -- 29.70 in1005.8 mb 0.00 in0.0 mm 0.00 in0.0 mm 0.00 in0.0 mm
10:00 PM 54.6°F12.6°C 51.4°F10.8°C 89% Calm Calm -- 29.70 in1005.8 mb 0.00 in0.0 mm 0.00 in0.0 mm 0.00 in0.0 mm
10:15 PM 54.0°F12.2°C 50.8°F10.4°C 89% Calm Calm -- 29.70 in1005.8 mb 0.00 in0.0 mm 0.00 in0.0 mm 0.00 in0.0 mm
10:30 PM 53.5°F11.9°C 50.6°F10.3°C 90% Calm Calm -- 29.68 in1005.1 mb 0.00 in0.0 mm 0.00 in0.0 mm 0.00 in0.0 mm
10:45 PM 53.1°F11.7°C 50.3°F10.2°C 90% Calm Calm -- 29.69 in1005.4 mb 0.00 in0.0 mm 0.00 in0.0 mm 0.00 in0.0 mm
11:00 PM 52.6°F11.4°C 50.1°F10.1°C 91% Calm Calm -- 29.70 in1005.8 mb 0.00 in0.0 mm 0.00 in0.0 mm 0.00 in0.0 mm
11:15 PM 52.3°F11.3°C 49.8°F9.9°C 91% Calm Calm -- 29.70 in1005.8 mb 0.00 in0.0 mm 0.00 in0.0 mm 0.00 in0.0 mm
11:30 PM 52.1°F11.2°C 49.9°F9.9°C 92% Calm Calm -- 29.69 in1005.4 mb 0.00 in0.0 mm 0.00 in0.0 mm 0.00 in0.0 mm
11:45 PM 51.7°F10.9°C 49.5°F9.7°C 92% Calm Calm -- 29.72 in1006.4 mb 0.00 in0.0 mm 0.00 in0.0 mm 0.00 in0.0 mm